Terminal Aerodrome Forecast
Issued by NWS

Home | Current Version | Previous Version | Text Only | Print | Product List | Glossary On
Versions: 1 2 3 4 5 6 7 8 9 10 11 12 13 14 15
000
FTUS45 KABQ 032342
TAFTCC
TAF
KTCC 032342Z 0400/0424 22015G22KT P6SM SCT150
     FM040300 22010KT P6SM BKN150
     FM041500 24013KT P6SM BKN120
     FM041900 20015G25KT P6SM VCTS BKN080CB=

USA.gov is the U.S. government's official web portal to all federal, state and local government web resources and services.